createdAt,value
2023-05-04T00:01:43.793Z,9.76
2023-05-04T00:04:12.408Z,9.72
2023-05-04T00:06:40.844Z,9.69
2023-05-04T00:09:09.206Z,9.61
2023-05-04T00:11:38.665Z,9.56
2023-05-04T00:14:07.142Z,9.55
2023-05-04T00:16:36.692Z,9.49
2023-05-04T00:19:06.902Z,9.46
2023-05-04T00:21:35.187Z,9.44
2023-05-04T00:24:03.294Z,9.41
2023-05-04T00:26:32.746Z,9.38
2023-05-04T00:29:01.047Z,9.37
2023-05-04T00:31:29.847Z,9.36
2023-05-04T00:33:58.904Z,9.33
2023-05-04T00:36:28.521Z,9.31
2023-05-04T00:38:56.624Z,9.30
2023-05-04T00:41:24.994Z,9.28
2023-05-04T00:43:53.180Z,9.28
2023-05-04T00:46:21.613Z,9.27
2023-05-04T00:48:52.355Z,9.36
2023-05-04T00:51:21.848Z,9.41
2023-05-04T00:53:52.725Z,9.43
2023-05-04T00:56:22.779Z,9.44
2023-05-04T00:58:54.699Z,9.43
2023-05-04T01:01:23.168Z,9.38
2023-05-04T01:03:51.836Z,9.42
2023-05-04T01:06:28.188Z,9.46
2023-05-04T01:09:04.513Z,9.29
2023-05-04T01:11:35.507Z,9.03
2023-05-04T01:14:03.833Z,8.97
2023-05-04T01:16:32.380Z,8.94
2023-05-04T01:19:00.770Z,8.93
2023-05-04T01:21:31.813Z,8.99
2023-05-04T01:24:00.844Z,8.96
2023-05-04T01:26:29.847Z,9.01
2023-05-04T01:29:02.345Z,9.05
2023-05-04T01:31:35.590Z,9.01
2023-05-04T01:34:03.966Z,8.98
2023-05-04T01:36:34.676Z,8.95
2023-05-04T01:39:04.421Z,8.87
2023-05-04T01:41:34.956Z,8.84
2023-05-04T01:44:05.741Z,8.77
2023-05-04T01:46:34.275Z,8.76
2023-05-04T01:49:02.631Z,8.84
2023-05-04T01:51:31.454Z,8.91
2023-05-04T01:54:04.153Z,9.02
2023-05-04T01:56:33.225Z,8.98
2023-05-04T01:59:02.194Z,8.83
2023-05-04T02:01:30.243Z,8.74
2023-05-04T02:03:58.592Z,8.68
2023-05-04T02:06:26.974Z,8.77
2023-05-04T02:08:55.649Z,8.72
2023-05-04T02:11:25.870Z,8.53
2023-05-04T02:13:55.401Z,8.51
2023-05-04T02:16:23.315Z,8.43
2023-05-04T02:18:51.554Z,8.24
2023-05-04T02:21:19.816Z,7.94
2023-05-04T02:23:47.832Z,7.75
2023-05-04T02:26:17.256Z,7.62
2023-05-04T02:28:46.777Z,7.44
2023-05-04T02:31:15.415Z,7.38
2023-05-04T02:33:44.147Z,7.34
2023-05-04T02:36:12.200Z,7.26
2023-05-04T02:38:40.586Z,7.25
2023-05-04T02:41:09.158Z,7.20
2023-05-04T02:43:38.462Z,7.16
2023-05-04T02:46:08.054Z,7.17
2023-05-04T02:48:36.452Z,7.13
2023-05-04T02:51:04.353Z,7.09
2023-05-04T02:53:32.384Z,7.08
2023-05-04T02:56:00.131Z,7.07
2023-05-04T02:58:28.035Z,7.00
2023-05-04T03:00:58.721Z,6.96
2023-05-04T03:03:28.216Z,6.95
2023-05-04T03:05:56.273Z,6.87
2023-05-04T03:08:24.537Z,6.89
2023-05-04T03:10:53.058Z,6.82
2023-05-04T03:13:21.750Z,6.82
2023-05-04T03:15:50.194Z,6.78
2023-05-04T03:18:18.356Z,6.83
2023-05-04T03:20:50.436Z,6.83
2023-05-04T03:23:21.777Z,6.82
2023-05-04T03:25:50.590Z,6.80
2023-05-04T03:28:18.563Z,6.77
2023-05-04T03:30:47.671Z,6.75
2023-05-04T03:33:17.305Z,6.80
2023-05-04T03:35:45.358Z,6.80
2023-05-04T03:38:15.832Z,6.77
2023-05-04T03:40:44.830Z,6.80
2023-05-04T03:43:14.035Z,6.81
2023-05-04T03:45:44.815Z,6.80
2023-05-04T03:48:13.521Z,6.81
2023-05-04T03:50:41.749Z,6.83
2023-05-04T03:53:09.915Z,6.85
2023-05-04T03:55:39.593Z,6.87
2023-05-04T03:58:09.181Z,7.01
2023-05-04T04:00:37.349Z,7.01
2023-05-04T04:03:12.288Z,6.98
2023-05-04T04:05:40.688Z,7.00
2023-05-04T04:08:08.935Z,6.93
2023-05-04T04:10:37.221Z,6.90
2023-05-04T04:13:06.891Z,6.91
2023-05-04T04:15:38.065Z,6.93
2023-05-04T04:18:06.651Z,6.92
2023-05-04T04:20:35.085Z,6.94
2023-05-04T04:23:03.099Z,7.04
2023-05-04T04:25:31.774Z,7.14
2023-05-04T04:28:00.223Z,7.24
2023-05-04T04:30:32.039Z,7.22
2023-05-04T04:33:00.124Z,7.35
2023-05-04T04:35:28.858Z,7.33
2023-05-04T04:37:57.337Z,7.33
2023-05-04T04:40:25.824Z,7.34
2023-05-04T04:42:54.521Z,7.46
2023-05-04T04:45:23.680Z,7.48
2023-05-04T04:47:53.048Z,7.55
2023-05-04T04:50:21.219Z,7.57
2023-05-04T04:52:49.544Z,7.62
2023-05-04T04:55:19.580Z,7.78
2023-05-04T04:57:47.585Z,7.81
2023-05-04T05:00:17.120Z,7.81
2023-05-04T05:02:45.524Z,7.82
2023-05-04T05:05:15.558Z,7.94
2023-05-04T05:07:43.503Z,8.06
2023-05-04T05:10:26.154Z,8.01
2023-05-04T05:12:54.558Z,7.94
2023-05-04T05:15:23.001Z,8.02
2023-05-04T05:17:52.495Z,8.00
2023-05-04T05:20:23.639Z,8.10
2023-05-04T05:22:52.453Z,8.31
2023-05-04T05:25:21.594Z,8.66
2023-05-04T05:27:50.004Z,8.79
2023-05-04T05:30:20.469Z,8.77
2023-05-04T05:32:49.438Z,9.18
2023-05-04T05:35:18.004Z,9.30
2023-05-04T05:37:49.083Z,9.26
2023-05-04T05:40:18.182Z,9.41
2023-05-04T05:42:47.150Z,9.46
2023-05-04T05:45:15.436Z,9.67
2023-05-04T05:47:43.710Z,9.97
2023-05-04T05:50:14.288Z,9.83
2023-05-04T05:52:43.960Z,9.92
2023-05-04T05:55:14.074Z,10.30
2023-05-04T05:57:42.586Z,10.54
2023-05-04T06:00:12.966Z,10.56
2023-05-04T06:02:41.753Z,10.96
2023-05-04T06:05:10.731Z,11.14
2023-05-04T06:07:39.109Z,11.54
2023-05-04T06:10:07.863Z,11.82
2023-05-04T06:12:37.557Z,12.29
2023-05-04T06:15:06.261Z,12.48
2023-05-04T06:17:35.414Z,12.50
2023-05-04T06:20:03.662Z,12.64
2023-05-04T06:22:32.788Z,13.12
2023-05-04T06:25:06.074Z,13.54
2023-05-04T06:27:37.282Z,13.51
2023-05-04T06:30:05.632Z,13.50
2023-05-04T06:32:38.007Z,13.80
2023-05-04T06:35:09.200Z,13.88
2023-05-04T06:37:37.958Z,13.67
2023-05-04T06:40:07.307Z,13.70
2023-05-04T06:42:35.552Z,13.73
2023-05-04T06:45:05.215Z,13.93
2023-05-04T06:47:35.746Z,13.87
2023-05-04T06:50:09.415Z,13.97
2023-05-04T06:52:39.195Z,14.15
2023-05-04T06:55:08.322Z,14.39
2023-05-04T06:57:36.064Z,14.21
2023-05-04T07:00:06.615Z,14.41
2023-05-04T07:02:34.856Z,14.72
2023-05-04T07:05:03.651Z,14.66
2023-05-04T07:07:32.284Z,14.83
2023-05-04T07:10:01.305Z,14.74
2023-05-04T07:12:30.372Z,14.78
2023-05-04T07:14:58.770Z,14.69
2023-05-04T07:17:29.882Z,14.70
2023-05-04T07:19:59.384Z,14.56
2023-05-04T07:22:27.176Z,14.93
2023-05-04T07:24:57.362Z,15.74
2023-05-04T07:27:25.309Z,16.02
2023-05-04T07:29:54.735Z,16.33
2023-05-04T07:32:22.743Z,16.84
2023-05-04T07:34:52.218Z,17.22
2023-05-04T07:37:20.485Z,17.03
2023-05-04T07:39:48.533Z,17.14
2023-05-04T07:42:17.647Z,17.38
2023-05-04T07:44:46.334Z,17.75
2023-05-04T07:47:13.922Z,18.58
2023-05-04T07:49:42.152Z,18.48
2023-05-04T07:52:11.402Z,18.86
2023-05-04T07:54:40.107Z,19.47
2023-05-04T07:57:09.901Z,20.34
2023-05-04T07:59:37.922Z,20.92
2023-05-04T08:02:07.296Z,20.64
2023-05-04T08:04:35.536Z,20.50
2023-05-04T08:07:03.342Z,20.10
2023-05-04T08:09:32.532Z,20.17
2023-05-04T08:12:00.317Z,20.75
2023-05-04T08:14:29.742Z,20.43
2023-05-04T08:16:57.588Z,20.63
2023-05-04T08:19:26.253Z,20.68
2023-05-04T08:21:54.374Z,20.84
2023-05-04T08:24:22.445Z,21.15
2023-05-04T08:27:03.652Z,21.32
2023-05-04T08:29:31.909Z,21.00
2023-05-04T08:32:00.931Z,21.34
2023-05-04T08:34:28.892Z,21.18
2023-05-04T08:36:56.488Z,20.85
2023-05-04T08:39:26.723Z,21.16
2023-05-04T08:41:55.877Z,21.71
2023-05-04T08:44:24.341Z,22.23
2023-05-04T08:46:53.496Z,22.31
2023-05-04T08:49:22.778Z,22.36
2023-05-04T08:51:53.368Z,21.92
2023-05-04T08:54:22.449Z,22.03
2023-05-04T08:56:52.383Z,21.72
2023-05-04T08:59:22.536Z,21.63
2023-05-04T09:01:59.076Z,21.27
2023-05-04T09:04:29.210Z,20.97
2023-05-04T09:06:59.148Z,20.85
2023-05-04T09:09:30.010Z,21.27
2023-05-04T09:11:59.752Z,21.59
2023-05-04T09:14:35.845Z,21.21
2023-05-04T09:17:07.059Z,21.71
2023-05-04T09:19:35.596Z,22.23
2023-05-04T09:22:03.928Z,22.36
2023-05-04T09:24:31.853Z,22.26
2023-05-04T09:27:09.381Z,22.36
2023-05-04T09:29:40.764Z,22.83
2023-05-04T09:32:16.890Z,23.28
2023-05-04T09:34:48.198Z,23.19
2023-05-04T09:37:18.643Z,23.67
2023-05-04T09:39:54.807Z,23.72
2023-05-04T09:42:23.551Z,23.72
2023-05-04T09:45:08.581Z,23.49
2023-05-04T09:47:38.251Z,23.90
2023-05-04T09:50:12.882Z,24.60
2023-05-04T09:52:42.879Z,24.72
2023-05-04T09:55:13.746Z,24.44
2023-05-04T09:57:42.526Z,25.16
2023-05-04T10:00:16.265Z,25.94
2023-05-04T10:02:44.893Z,27.06
2023-05-04T10:05:17.292Z,26.42
2023-05-04T10:07:47.538Z,26.67
2023-05-04T10:10:16.633Z,28.09
2023-05-04T10:12:47.333Z,30.13
2023-05-04T10:15:17.850Z,28.57
2023-05-04T10:18:00.293Z,28.01
2023-05-04T10:20:34.502Z,28.02
2023-05-04T10:23:26.193Z,29.02
2023-05-04T10:26:18.692Z,30.14
2023-05-04T10:28:52.234Z,31.94
2023-05-04T10:31:23.347Z,31.47
2023-05-04T10:33:51.570Z,28.72
2023-05-04T10:36:19.197Z,28.81
2023-05-04T10:38:47.329Z,29.43
2023-05-04T10:41:15.948Z,31.26
2023-05-04T10:43:48.698Z,33.72
2023-05-04T10:46:17.209Z,33.61
2023-05-04T10:48:46.639Z,33.26
2023-05-04T10:51:23.181Z,33.92
2023-05-04T10:53:52.813Z,34.79
2023-05-04T10:56:22.955Z,34.44
2023-05-04T10:58:50.823Z,34.25
2023-05-04T11:01:18.593Z,31.35
2023-05-04T11:03:50.762Z,30.96
2023-05-04T11:06:23.374Z,29.91
2023-05-04T11:09:00.126Z,30.36
2023-05-04T11:11:30.763Z,31.06
2023-05-04T11:13:58.633Z,30.16
2023-05-04T11:16:28.336Z,29.64
2023-05-04T11:19:08.649Z,28.95
2023-05-04T11:21:36.757Z,30.45
2023-05-04T11:24:04.930Z,32.18
2023-05-04T11:26:35.001Z,35.07
2023-05-04T11:29:12.721Z,35.40
2023-05-04T11:31:40.924Z,36.61
2023-05-04T11:34:12.322Z,36.87
2023-05-04T11:36:40.786Z,34.10
2023-05-04T11:39:09.076Z,33.78
2023-05-04T11:41:37.660Z,31.53
2023-05-04T11:44:10.176Z,31.23
2023-05-04T11:46:38.324Z,32.06
2023-05-04T11:49:06.990Z,33.50
2023-05-04T11:51:36.536Z,33.68
2023-05-04T11:54:07.128Z,32.47
2023-05-04T11:57:04.352Z,32.68
2023-05-04T11:59:33.517Z,35.52
2023-05-04T12:02:01.423Z,34.97
2023-05-04T12:04:31.879Z,34.68
2023-05-04T12:07:01.784Z,35.58
2023-05-04T12:09:29.743Z,37.12
2023-05-04T12:11:57.456Z,37.90
2023-05-04T12:14:28.318Z,35.20
2023-05-04T12:16:57.848Z,36.78
2023-05-04T12:19:26.078Z,36.65
2023-05-04T12:21:58.394Z,37.86
2023-05-04T12:24:28.536Z,40.44
2023-05-04T12:26:56.999Z,39.81
2023-05-04T12:29:25.273Z,38.55
2023-05-04T12:31:53.123Z,36.96
2023-05-04T12:34:23.523Z,36.33
2023-05-04T12:36:54.577Z,35.20
2023-05-04T12:39:22.359Z,34.14
2023-05-04T12:41:53.947Z,33.31
2023-05-04T12:44:22.831Z,36.71
2023-05-04T12:46:50.568Z,35.12
2023-05-04T12:49:18.612Z,35.97
2023-05-04T12:51:46.598Z,36.88
2023-05-04T12:54:16.905Z,36.88
2023-05-04T12:56:44.630Z,37.08
2023-05-04T12:59:13.837Z,36.13
2023-05-04T13:01:42.381Z,36.73
2023-05-04T13:04:10.031Z,34.60
2023-05-04T13:06:38.109Z,34.96
2023-05-04T13:09:06.873Z,36.44
2023-05-04T13:11:36.005Z,37.44
2023-05-04T13:14:03.883Z,39.39
2023-05-04T13:16:33.662Z,39.91
2023-05-04T13:19:01.393Z,40.29
2023-05-04T13:21:29.061Z,39.75
2023-05-04T13:23:57.663Z,39.95
2023-05-04T13:26:25.715Z,41.22
2023-05-04T13:28:53.622Z,39.28
2023-05-04T13:31:22.115Z,37.71
2023-05-04T13:33:51.247Z,37.71
2023-05-04T13:36:19.368Z,38.06
2023-05-04T13:38:47.166Z,38.04
2023-05-04T13:41:15.293Z,37.68
2023-05-04T13:43:43.928Z,40.13
2023-05-04T13:46:12.603Z,41.88
2023-05-04T13:48:40.418Z,41.45
2023-05-04T13:51:10.026Z,38.06
2023-05-04T13:53:38.054Z,36.17
2023-05-04T13:56:06.605Z,35.20
2023-05-04T13:58:41.853Z,35.70
2023-05-04T14:01:10.665Z,36.52
2023-05-04T14:03:39.479Z,35.98
2023-05-04T14:06:07.626Z,36.95
2023-05-04T14:08:36.651Z,37.54
2023-05-04T14:11:04.627Z,37.23
2023-05-04T14:13:32.412Z,37.04
2023-05-04T14:16:01.330Z,36.76
2023-05-04T14:18:32.197Z,36.33
2023-05-04T14:21:00.115Z,35.51
2023-05-04T14:23:28.933Z,35.34
2023-05-04T14:25:58.234Z,35.97
2023-05-04T14:28:27.002Z,34.40
2023-05-04T14:30:55.015Z,35.41
2023-05-04T14:33:22.783Z,35.38
2023-05-04T14:35:50.623Z,35.17
2023-05-04T14:38:18.845Z,35.19
2023-05-04T14:40:48.992Z,34.90
2023-05-04T14:43:19.456Z,33.65
2023-05-04T14:45:47.583Z,32.71
2023-05-04T14:48:16.259Z,33.33
2023-05-04T14:50:44.249Z,34.22
2023-05-04T14:53:12.277Z,35.31
2023-05-04T14:55:42.125Z,35.35
2023-05-04T14:58:10.819Z,34.41
2023-05-04T15:00:41.047Z,33.31
2023-05-04T15:03:10.084Z,33.69
2023-05-04T15:05:38.483Z,34.16
2023-05-04T15:08:07.051Z,34.93
2023-05-04T15:10:36.707Z,34.26
2023-05-04T15:13:05.212Z,33.72
2023-05-04T15:15:33.551Z,34.10
2023-05-04T15:18:03.306Z,34.00
2023-05-04T15:20:32.593Z,33.13
2023-05-04T15:23:03.485Z,33.56
2023-05-04T15:25:32.875Z,35.53
2023-05-04T15:28:00.983Z,35.55
2023-05-04T15:30:29.812Z,34.75
2023-05-04T15:32:57.823Z,34.22
2023-05-04T15:35:27.221Z,34.55
2023-05-04T15:37:55.597Z,34.90
2023-05-04T15:40:24.518Z,35.63
2023-05-04T15:42:52.974Z,35.88
2023-05-04T15:45:21.344Z,34.78
2023-05-04T15:47:51.873Z,34.90
2023-05-04T15:50:20.829Z,34.91
2023-05-04T15:52:50.102Z,34.24
2023-05-04T15:55:25.825Z,33.88
2023-05-04T15:57:54.324Z,33.80
2023-05-04T16:00:22.623Z,33.72
2023-05-04T16:02:51.041Z,33.72
2023-05-04T16:05:24.272Z,33.21
2023-05-04T16:07:53.622Z,33.92
2023-05-04T16:10:22.352Z,34.66
2023-05-04T16:12:50.108Z,34.81
2023-05-04T16:15:20.678Z,34.13
2023-05-04T16:17:48.355Z,32.38
2023-05-04T16:20:16.237Z,31.90
2023-05-04T16:22:44.102Z,31.29
2023-05-04T16:25:13.304Z,30.98
2023-05-04T16:27:41.480Z,31.06
2023-05-04T16:30:10.039Z,31.19
2023-05-04T16:32:39.038Z,30.84
2023-05-04T16:35:07.872Z,31.85
2023-05-04T16:37:37.435Z,32.17
2023-05-04T16:40:15.259Z,32.17
2023-05-04T16:42:43.287Z,31.66
2023-05-04T16:45:15.469Z,32.74
2023-05-04T16:47:43.576Z,32.81
2023-05-04T16:50:12.522Z,32.32
2023-05-04T16:52:41.356Z,31.88
2023-05-04T16:55:11.864Z,32.63
2023-05-04T16:57:42.469Z,31.82
2023-05-04T17:00:12.024Z,31.43
2023-05-04T17:02:40.068Z,32.05
2023-05-04T17:05:10.322Z,30.58
2023-05-04T17:07:39.980Z,28.81
2023-05-04T17:10:08.596Z,28.16
2023-05-04T17:12:36.943Z,28.03
2023-05-04T17:15:06.575Z,27.85
2023-05-04T17:17:34.598Z,27.65
2023-05-04T17:20:02.420Z,27.74
2023-05-04T17:22:31.148Z,28.27
2023-05-04T17:24:58.807Z,28.96
2023-05-04T17:27:26.709Z,28.95
2023-05-04T17:29:54.489Z,28.29
2023-05-04T17:32:25.769Z,27.38
2023-05-04T17:34:53.815Z,26.55
2023-05-04T17:37:21.721Z,26.04
2023-05-04T17:39:49.233Z,26.13
2023-05-04T17:42:17.154Z,26.27
2023-05-04T17:44:44.767Z,26.31
2023-05-04T17:47:12.548Z,26.03
2023-05-04T17:49:42.070Z,25.87
2023-05-04T17:52:12.033Z,25.98
2023-05-04T17:54:41.873Z,25.85
2023-05-04T17:57:18.623Z,25.62
2023-05-04T17:59:47.025Z,25.80
2023-05-04T18:02:14.784Z,25.99
2023-05-04T18:04:44.548Z,25.62
2023-05-04T18:07:12.318Z,25.18
2023-05-04T18:09:40.359Z,24.83
2023-05-04T18:12:09.100Z,24.65
2023-05-04T18:14:36.929Z,24.36
2023-05-04T18:17:04.870Z,23.73
2023-05-04T18:19:34.522Z,23.21
2023-05-04T18:22:03.669Z,22.88
2023-05-04T18:24:33.837Z,22.59
2023-05-04T18:27:03.755Z,22.26
2023-05-04T18:29:32.208Z,22.01
2023-05-04T18:32:01.277Z,21.75
2023-05-04T18:34:29.494Z,21.53
2023-05-04T18:36:57.207Z,21.51
2023-05-04T18:39:26.333Z,21.35
2023-05-04T18:41:54.645Z,21.13
2023-05-04T18:44:24.696Z,21.03
2023-05-04T18:46:52.518Z,20.96
2023-05-04T18:49:20.292Z,20.88
2023-05-04T18:51:48.597Z,20.66
2023-05-04T18:54:17.387Z,20.53
2023-05-04T18:56:46.471Z,20.43
2023-05-04T18:59:16.856Z,20.34
2023-05-04T19:01:44.692Z,20.16
2023-05-04T19:04:12.811Z,20.05
2023-05-04T19:06:40.887Z,19.90
2023-05-04T19:09:09.007Z,19.91
2023-05-04T19:11:36.796Z,19.68
2023-05-04T19:14:06.021Z,19.67
2023-05-04T19:16:33.995Z,19.54
2023-05-04T19:19:02.210Z,19.49
2023-05-04T19:21:30.369Z,19.37
2023-05-04T19:23:58.150Z,19.33
2023-05-04T19:26:26.073Z,19.24
2023-05-04T19:28:54.086Z,19.15
2023-05-04T19:31:26.314Z,19.18
2023-05-04T19:33:54.092Z,19.10
2023-05-04T19:36:22.403Z,19.07
2023-05-04T19:38:50.280Z,19.04
2023-05-04T19:41:18.293Z,19.01
2023-05-04T19:43:46.207Z,19.00
2023-05-04T19:46:13.962Z,18.77
2023-05-04T19:48:43.726Z,18.64
2023-05-04T19:51:11.350Z,18.62
2023-05-04T19:53:39.239Z,18.49
2023-05-04T19:56:09.577Z,18.36
2023-05-04T19:58:38.953Z,18.30
2023-05-04T20:01:06.746Z,18.21
2023-05-04T20:03:35.278Z,18.13
2023-05-04T20:06:04.724Z,18.02
2023-05-04T20:08:32.685Z,17.99
2023-05-04T20:11:00.711Z,17.83
2023-05-04T20:13:31.398Z,17.60
2023-05-04T20:16:04.455Z,17.51
2023-05-04T20:18:32.161Z,17.65
2023-05-04T20:21:00.046Z,17.56
2023-05-04T20:23:29.076Z,17.55
2023-05-04T20:25:57.251Z,17.63
2023-05-04T20:28:24.983Z,17.67
2023-05-04T20:30:52.939Z,17.73
2023-05-04T20:33:20.717Z,17.72
2023-05-04T20:35:50.120Z,17.49
2023-05-04T20:38:18.208Z,17.43
2023-05-04T20:40:47.377Z,17.38
2023-05-04T20:43:15.262Z,17.29
2023-05-04T20:45:42.862Z,17.29
2023-05-04T20:48:10.964Z,17.28
2023-05-04T20:50:39.837Z,17.22
2023-05-04T20:53:07.497Z,17.25
2023-05-04T20:55:36.254Z,17.22
2023-05-04T20:58:14.133Z,17.23
2023-05-04T21:00:42.100Z,17.21
2023-05-04T21:03:09.956Z,17.19
2023-05-04T21:05:42.130Z,17.28
2023-05-04T21:08:09.940Z,17.20
2023-05-04T21:10:38.227Z,17.20
2023-05-04T21:13:07.424Z,17.26
2023-05-04T21:15:36.256Z,17.34
2023-05-04T21:18:06.957Z,17.32
2023-05-04T21:20:34.632Z,17.38
2023-05-04T21:23:02.946Z,17.34
2023-05-04T21:25:30.895Z,17.28
2023-05-04T21:27:58.699Z,17.32
2023-05-04T21:30:28.020Z,17.19
2023-05-04T21:32:56.237Z,17.17
2023-05-04T21:35:24.650Z,17.06
2023-05-04T21:37:52.400Z,16.98
2023-05-04T21:40:21.719Z,16.92
2023-05-04T21:42:49.754Z,16.87
2023-05-04T21:45:19.586Z,16.80
2023-05-04T21:47:49.037Z,16.59
2023-05-04T21:50:17.871Z,16.21
2023-05-04T21:52:45.912Z,16.08
2023-05-04T21:55:13.939Z,15.95
2023-05-04T21:57:42.221Z,16.07
2023-05-04T22:00:12.689Z,16.11
2023-05-04T22:02:40.643Z,16.22
2023-05-04T22:05:11.050Z,16.36
2023-05-04T22:07:39.085Z,16.54
2023-05-04T22:10:08.221Z,16.58
2023-05-04T22:12:36.616Z,16.50
2023-05-04T22:15:04.987Z,16.31
2023-05-04T22:17:38.965Z,16.11
2023-05-04T22:20:08.070Z,15.77
2023-05-04T22:22:37.537Z,15.50
2023-05-04T22:25:06.123Z,15.24
2023-05-04T22:27:34.000Z,14.97
2023-05-04T22:30:01.995Z,14.79
2023-05-04T22:32:30.795Z,14.87
2023-05-04T22:34:58.785Z,14.97
2023-05-04T22:37:26.932Z,15.17
2023-05-04T22:39:56.808Z,15.28
2023-05-04T22:42:24.713Z,15.51
2023-05-04T22:44:52.461Z,15.54
2023-05-04T22:47:20.200Z,15.53
2023-05-04T22:49:48.012Z,15.51
2023-05-04T22:52:16.035Z,15.53
2023-05-04T22:54:43.742Z,15.53
2023-05-04T22:57:15.300Z,15.56
2023-05-04T22:59:43.254Z,15.56
2023-05-04T23:02:12.256Z,15.36
2023-05-04T23:04:44.015Z,15.40
2023-05-04T23:07:12.344Z,15.59
2023-05-04T23:09:42.545Z,15.71
2023-05-04T23:12:10.464Z,15.78
2023-05-04T23:14:39.575Z,15.73
2023-05-04T23:17:07.699Z,15.70
2023-05-04T23:19:35.672Z,15.47
2023-05-04T23:22:03.244Z,15.46
2023-05-04T23:24:31.099Z,15.49
2023-05-04T23:26:58.885Z,15.56
2023-05-04T23:29:27.145Z,15.61
2023-05-04T23:31:56.629Z,15.56
2023-05-04T23:34:25.174Z,15.42
2023-05-04T23:36:55.626Z,15.39
2023-05-04T23:39:23.466Z,15.43
2023-05-04T23:41:54.189Z,15.50
2023-05-04T23:44:22.654Z,15.59
2023-05-04T23:46:50.745Z,15.68
2023-05-04T23:49:19.864Z,15.65
2023-05-04T23:51:50.150Z,15.64
2023-05-04T23:54:17.935Z,15.68
2023-05-04T23:56:45.628Z,15.68
2023-05-04T23:59:13.126Z,15.70
